Fenton, Michigan
Current Conditions -  °F | °C
As of 7:53 AM on Saturday 25 Oct 2014 (Local Time) from KFNT Reporting Station
Few Clouds Few Clouds  
Wind Chill: 54°   Ceiling: Unl
Heat Index: 54°   Visibility: 8mi
Dew Point: 47°   Wind: 9mph
Humidity: 77%   Direction: 230°SW
Pressure: 29.82"   Gusts: NA
Location:  42.79°N, 83.7°W
Report Text: KFNT 251153Z 23008KT 8SM FEW032 FEW050 12/08 A2982 RMK AO2 SLP098 T01220083 10122 20067 58012
Loading
Personal Weather Stations






























Interactive Weather Map
Tropical Storm Tracking
New forecast layout! Learn more

10-Day Weather Forecast

Advertisements
Track Severe Weather on mobile